Terminal Aerodrome Forecast
Issued by NWS

Home | Current Version | Previous Version | Text Only | Print | Product List | Glossary Off
Versions: 1 2 3 4 5 6 7 8 9 10 11 12 13 14 15 16 17 18 19 20 21 22 23 24 25 26 27 28 29 30 31 32 33 34 35 36 37 38

732
FTUS43 KGRB 181132
TAFATW
TAF
KATW 181132Z 1812/1912 02007KT P6SM BKN025
     FM181600 03012KT P6SM OVC022
     FM182100 02014G20KT 5SM -SN OVC020
      TEMPO 1821/1901 2SM -SN OVC015
     FM190200 01014G21KT P6SM BKN040
     FM190500 01013G20KT P6SM SCT060=

USA.gov is the U.S. government's official web portal to all federal, state and local government web resources and services.